sensor_id;sensor_type;location;lat;lon;timestamp;P1;durP1;ratioP1;P2;durP2;ratioP2
20629;SDS011;17386;43.846;25.950;2022-12-31T00:00:59;15.20;;;6.40;;
20629;SDS011;17386;43.846;25.950;2022-12-31T00:03:24;11.27;;;5.80;;
20629;SDS011;17386;43.846;25.950;2022-12-31T00:05:50;16.15;;;6.50;;
20629;SDS011;17386;43.846;25.950;2022-12-31T00:08:15;13.95;;;6.05;;
20629;SDS011;17386;43.846;25.950;2022-12-31T00:10:41;12.85;;;6.18;;
20629;SDS011;17386;43.846;25.950;2022-12-31T00:13:10;13.02;;;6.30;;
20629;SDS011;17386;43.846;25.950;2022-12-31T00:15:37;13.75;;;5.72;;
20629;SDS011;17386;43.846;25.950;2022-12-31T00:18:03;12.35;;;5.93;;
20629;SDS011;17386;43.846;25.950;2022-12-31T00:20:29;14.68;;;6.13;;
20629;SDS011;17386;43.846;25.950;2022-12-31T00:22:55;13.15;;;6.43;;
20629;SDS011;17386;43.846;25.950;2022-12-31T00:25:20;11.90;;;6.10;;
20629;SDS011;17386;43.846;25.950;2022-12-31T00:27:46;13.30;;;6.97;;
20629;SDS011;17386;43.846;25.950;2022-12-31T00:30:11;14.48;;;6.38;;
20629;SDS011;17386;43.846;25.950;2022-12-31T00:32:37;15.82;;;6.43;;
20629;SDS011;17386;43.846;25.950;2022-12-31T00:35:03;15.60;;;6.88;;
20629;SDS011;17386;43.846;25.950;2022-12-31T00:37:28;17.23;;;7.03;;
20629;SDS011;17386;43.846;25.950;2022-12-31T00:39:54;16.27;;;7.43;;
20629;SDS011;17386;43.846;25.950;2022-12-31T00:42:19;13.75;;;6.28;;
20629;SDS011;17386;43.846;25.950;2022-12-31T00:44:45;15.50;;;6.28;;
20629;SDS011;17386;43.846;25.950;2022-12-31T00:47:10;16.50;;;6.75;;
20629;SDS011;17386;43.846;25.950;2022-12-31T00:49:35;10.90;;;5.72;;
20629;SDS011;17386;43.846;25.950;2022-12-31T00:52:01;13.30;;;6.35;;
20629;SDS011;17386;43.846;25.950;2022-12-31T00:54:26;14.60;;;6.65;;
20629;SDS011;17386;43.846;25.950;2022-12-31T00:56:52;15.48;;;6.40;;
20629;SDS011;17386;43.846;25.950;2022-12-31T00:59:17;11.98;;;5.93;;
20629;SDS011;17386;43.846;25.950;2022-12-31T01:01:42;13.45;;;5.95;;
20629;SDS011;17386;43.846;25.950;2022-12-31T01:04:15;16.50;;;6.40;;
20629;SDS011;17386;43.846;25.950;2022-12-31T01:06:42;14.50;;;6.68;;
20629;SDS011;17386;43.846;25.950;2022-12-31T01:09:09;14.05;;;6.72;;
20629;SDS011;17386;43.846;25.950;2022-12-31T01:11:36;12.68;;;5.75;;
20629;SDS011;17386;43.846;25.950;2022-12-31T01:14:06;14.40;;;6.82;;
20629;SDS011;17386;43.846;25.950;2022-12-31T01:19:13;12.52;;;6.10;;
20629;SDS011;17386;43.846;25.950;2022-12-31T01:21:41;14.68;;;7.10;;
20629;SDS011;17386;43.846;25.950;2022-12-31T01:24:08;15.18;;;7.10;;
20629;SDS011;17386;43.846;25.950;2022-12-31T01:26:35;18.27;;;7.50;;
20629;SDS011;17386;43.846;25.950;2022-12-31T01:29:01;17.35;;;7.72;;
20629;SDS011;17386;43.846;25.950;2022-12-31T01:31:27;15.27;;;7.57;;
20629;SDS011;17386;43.846;25.950;2022-12-31T01:33:52;16.50;;;7.65;;
20629;SDS011;17386;43.846;25.950;2022-12-31T01:36:22;17.77;;;7.72;;
20629;SDS011;17386;43.846;25.950;2022-12-31T01:38:49;22.38;;;8.93;;
20629;SDS011;17386;43.846;25.950;2022-12-31T01:41:15;18.73;;;7.50;;
20629;SDS011;17386;43.846;25.950;2022-12-31T01:46:33;15.60;;;7.55;;
20629;SDS011;17386;43.846;25.950;2022-12-31T01:51:37;16.42;;;7.38;;
20629;SDS011;17386;43.846;25.950;2022-12-31T01:54:06;20.30;;;8.82;;
20629;SDS011;17386;43.846;25.950;2022-12-31T01:56:33;16.30;;;7.93;;
20629;SDS011;17386;43.846;25.950;2022-12-31T01:59:04;19.40;;;8.65;;
20629;SDS011;17386;43.846;25.950;2022-12-31T02:01:32;19.20;;;8.23;;
20629;SDS011;17386;43.846;25.950;2022-12-31T02:04:02;17.92;;;8.55;;
20629;SDS011;17386;43.846;25.950;2022-12-31T02:06:37;16.83;;;8.15;;
20629;SDS011;17386;43.846;25.950;2022-12-31T02:09:07;15.13;;;7.10;;
20629;SDS011;17386;43.846;25.950;2022-12-31T02:11:33;17.35;;;7.53;;
20629;SDS011;17386;43.846;25.950;2022-12-31T02:14:03;18.02;;;8.20;;
20629;SDS011;17386;43.846;25.950;2022-12-31T02:28:16;17.75;;;8.13;;
20629;SDS011;17386;43.846;25.950;2022-12-31T02:30:37;16.38;;;8.38;;
20629;SDS011;17386;43.846;25.950;2022-12-31T02:36:19;20.27;;;8.02;;
20629;SDS011;17386;43.846;25.950;2022-12-31T02:38:49;19.13;;;9.20;;
20629;SDS011;17386;43.846;25.950;2022-12-31T02:41:17;19.48;;;8.07;;
20629;SDS011;17386;43.846;25.950;2022-12-31T02:50:36;13.57;;;6.68;;
20629;SDS011;17386;43.846;25.950;2022-12-31T02:55:31;16.73;;;7.65;;
20629;SDS011;17386;43.846;25.950;2022-12-31T02:58:07;18.52;;;8.23;;
20629;SDS011;17386;43.846;25.950;2022-12-31T03:00:36;15.10;;;7.15;;
20629;SDS011;17386;43.846;25.950;2022-12-31T03:03:27;14.63;;;6.53;;
20629;SDS011;17386;43.846;25.950;2022-12-31T03:05:53;17.80;;;6.93;;
20629;SDS011;17386;43.846;25.950;2022-12-31T03:08:24;15.93;;;7.22;;
20629;SDS011;17386;43.846;25.950;2022-12-31T03:10:50;14.48;;;6.72;;
20629;SDS011;17386;43.846;25.950;2022-12-31T03:13:16;17.33;;;7.20;;
20629;SDS011;17386;43.846;25.950;2022-12-31T03:15:41;18.77;;;7.22;;
20629;SDS011;17386;43.846;25.950;2022-12-31T03:20:36;18.15;;;7.28;;
20629;SDS011;17386;43.846;25.950;2022-12-31T03:23:25;15.25;;;6.95;;
20629;SDS011;17386;43.846;25.950;2022-12-31T03:25:54;15.82;;;7.60;;
20629;SDS011;17386;43.846;25.950;2022-12-31T03:28:22;15.48;;;7.03;;
20629;SDS011;17386;43.846;25.950;2022-12-31T03:30:51;16.15;;;7.40;;
20629;SDS011;17386;43.846;25.950;2022-12-31T03:33:19;16.75;;;6.70;;
20629;SDS011;17386;43.846;25.950;2022-12-31T03:35:45;15.23;;;7.07;;
20629;SDS011;17386;43.846;25.950;2022-12-31T03:38:12;14.73;;;7.00;;
20629;SDS011;17386;43.846;25.950;2022-12-31T03:40:39;14.45;;;6.30;;
20629;SDS011;17386;43.846;25.950;2022-12-31T03:43:06;18.15;;;7.05;;
20629;SDS011;17386;43.846;25.950;2022-12-31T03:45:31;16.08;;;6.65;;
20629;SDS011;17386;43.846;25.950;2022-12-31T03:47:58;15.68;;;6.55;;
20629;SDS011;17386;43.846;25.950;2022-12-31T03:50:24;13.68;;;6.95;;
20629;SDS011;17386;43.846;25.950;2022-12-31T03:52:49;14.95;;;6.43;;
20629;SDS011;17386;43.846;25.950;2022-12-31T03:55:15;13.68;;;6.75;;
20629;SDS011;17386;43.846;25.950;2022-12-31T03:57:40;17.17;;;6.78;;
20629;SDS011;17386;43.846;25.950;2022-12-31T04:00:07;15.07;;;6.65;;
20629;SDS011;17386;43.846;25.950;2022-12-31T04:02:36;16.65;;;7.20;;
20629;SDS011;17386;43.846;25.950;2022-12-31T04:05:01;15.68;;;6.90;;
20629;SDS011;17386;43.846;25.950;2022-12-31T04:07:27;14.50;;;6.85;;
20629;SDS011;17386;43.846;25.950;2022-12-31T04:09:53;16.90;;;7.38;;
20629;SDS011;17386;43.846;25.950;2022-12-31T04:12:18;12.30;;;6.03;;
20629;SDS011;17386;43.846;25.950;2022-12-31T04:14:43;16.05;;;6.20;;
20629;SDS011;17386;43.846;25.950;2022-12-31T04:17:09;13.68;;;6.50;;
20629;SDS011;17386;43.846;25.950;2022-12-31T04:19:34;13.85;;;6.18;;
20629;SDS011;17386;43.846;25.950;2022-12-31T04:22:00;13.00;;;6.68;;
20629;SDS011;17386;43.846;25.950;2022-12-31T04:24:25;15.88;;;6.68;;
20629;SDS011;17386;43.846;25.950;2022-12-31T04:26:51;14.38;;;5.85;;
20629;SDS011;17386;43.846;25.950;2022-12-31T04:29:16;16.23;;;6.75;;
20629;SDS011;17386;43.846;25.950;2022-12-31T04:31:42;12.82;;;6.07;;
20629;SDS011;17386;43.846;25.950;2022-12-31T04:34:07;13.82;;;6.22;;
20629;SDS011;17386;43.846;25.950;2022-12-31T04:36:33;14.23;;;6.60;;
20629;SDS011;17386;43.846;25.950;2022-12-31T04:38:59;14.48;;;6.75;;
20629;SDS011;17386;43.846;25.950;2022-12-31T04:41:24;12.73;;;5.55;;
20629;SDS011;17386;43.846;25.950;2022-12-31T04:43:57;13.52;;;6.57;;
20629;SDS011;17386;43.846;25.950;2022-12-31T04:46:28;14.60;;;6.57;;
20629;SDS011;17386;43.846;25.950;2022-12-31T04:48:55;15.30;;;6.82;;
20629;SDS011;17386;43.846;25.950;2022-12-31T04:51:21;12.18;;;6.28;;
20629;SDS011;17386;43.846;25.950;2022-12-31T04:53:47;14.90;;;7.40;;
20629;SDS011;17386;43.846;25.950;2022-12-31T04:56:13;19.67;;;8.23;;
20629;SDS011;17386;43.846;25.950;2022-12-31T04:58:40;15.27;;;7.03;;
20629;SDS011;17386;43.846;25.950;2022-12-31T05:01:05;14.70;;;6.28;;
20629;SDS011;17386;43.846;25.950;2022-12-31T05:03:31;16.13;;;6.95;;
20629;SDS011;17386;43.846;25.950;2022-12-31T05:06:00;14.65;;;7.22;;
20629;SDS011;17386;43.846;25.950;2022-12-31T05:08:28;14.45;;;6.55;;
20629;SDS011;17386;43.846;25.950;2022-12-31T05:10:54;16.10;;;7.03;;
20629;SDS011;17386;43.846;25.950;2022-12-31T05:13:21;14.02;;;6.30;;
20629;SDS011;17386;43.846;25.950;2022-12-31T05:15:47;15.65;;;6.85;;
20629;SDS011;17386;43.846;25.950;2022-12-31T05:18:13;17.08;;;7.30;;
20629;SDS011;17386;43.846;25.950;2022-12-31T05:20:38;13.98;;;6.85;;
20629;SDS011;17386;43.846;25.950;2022-12-31T05:23:04;14.20;;;6.90;;
20629;SDS011;17386;43.846;25.950;2022-12-31T05:25:30;14.05;;;6.68;;
20629;SDS011;17386;43.846;25.950;2022-12-31T05:27:57;14.13;;;6.85;;
20629;SDS011;17386;43.846;25.950;2022-12-31T05:30:22;14.30;;;7.15;;
20629;SDS011;17386;43.846;25.950;2022-12-31T05:32:48;15.55;;;6.70;;
20629;SDS011;17386;43.846;25.950;2022-12-31T05:35:13;15.43;;;6.97;;
20629;SDS011;17386;43.846;25.950;2022-12-31T05:37:39;15.80;;;7.15;;
20629;SDS011;17386;43.846;25.950;2022-12-31T05:40:04;17.20;;;7.50;;
20629;SDS011;17386;43.846;25.950;2022-12-31T05:42:31;16.15;;;7.78;;
20629;SDS011;17386;43.846;25.950;2022-12-31T05:44:56;16.70;;;7.45;;
20629;SDS011;17386;43.846;25.950;2022-12-31T05:47:22;16.15;;;6.85;;
20629;SDS011;17386;43.846;25.950;2022-12-31T05:49:47;14.93;;;7.70;;
20629;SDS011;17386;43.846;25.950;2022-12-31T05:52:13;15.82;;;6.88;;
20629;SDS011;17386;43.846;25.950;2022-12-31T05:54:38;14.50;;;7.00;;
20629;SDS011;17386;43.846;25.950;2022-12-31T05:57:04;21.33;;;7.90;;
20629;SDS011;17386;43.846;25.950;2022-12-31T05:59:30;15.75;;;7.60;;
20629;SDS011;17386;43.846;25.950;2022-12-31T06:01:55;17.20;;;8.30;;
20629;SDS011;17386;43.846;25.950;2022-12-31T06:04:21;18.10;;;7.53;;
20629;SDS011;17386;43.846;25.950;2022-12-31T06:06:47;15.80;;;7.93;;
20629;SDS011;17386;43.846;25.950;2022-12-31T06:09:13;14.88;;;7.05;;
20629;SDS011;17386;43.846;25.950;2022-12-31T06:11:40;15.48;;;7.57;;
20629;SDS011;17386;43.846;25.950;2022-12-31T06:14:05;22.75;;;9.98;;
20629;SDS011;17386;43.846;25.950;2022-12-31T06:16:31;24.65;;;11.98;;
20629;SDS011;17386;43.846;25.950;2022-12-31T06:18:56;23.77;;;10.07;;
20629;SDS011;17386;43.846;25.950;2022-12-31T06:21:21;21.60;;;9.45;;
20629;SDS011;17386;43.846;25.950;2022-12-31T06:23:47;19.40;;;9.55;;
20629;SDS011;17386;43.846;25.950;2022-12-31T06:26:13;22.73;;;9.88;;
20629;SDS011;17386;43.846;25.950;2022-12-31T06:28:39;19.00;;;9.25;;
20629;SDS011;17386;43.846;25.950;2022-12-31T06:31:06;16.45;;;8.48;;
20629;SDS011;17386;43.846;25.950;2022-12-31T06:33:34;19.02;;;7.95;;
20629;SDS011;17386;43.846;25.950;2022-12-31T06:36:01;20.67;;;8.60;;
20629;SDS011;17386;43.846;25.950;2022-12-31T06:40:54;16.92;;;8.48;;
20629;SDS011;17386;43.846;25.950;2022-12-31T06:43:20;19.13;;;8.32;;
20629;SDS011;17386;43.846;25.950;2022-12-31T06:45:46;19.77;;;8.45;;
20629;SDS011;17386;43.846;25.950;2022-12-31T06:48:12;21.95;;;7.18;;
20629;SDS011;17386;43.846;25.950;2022-12-31T06:50:37;16.13;;;7.40;;
20629;SDS011;17386;43.846;25.950;2022-12-31T06:53:04;17.48;;;7.75;;
20629;SDS011;17386;43.846;25.950;2022-12-31T06:55:29;19.60;;;8.27;;
20629;SDS011;17386;43.846;25.950;2022-12-31T06:57:55;17.45;;;8.10;;
20629;SDS011;17386;43.846;25.950;2022-12-31T07:00:21;17.40;;;8.52;;
20629;SDS011;17386;43.846;25.950;2022-12-31T07:08:32;32.35;;;11.23;;
20629;SDS011;17386;43.846;25.950;2022-12-31T07:16:53;34.70;;;13.20;;
20629;SDS011;17386;43.846;25.950;2022-12-31T07:19:23;22.13;;;8.77;;
20629;SDS011;17386;43.846;25.950;2022-12-31T07:21:50;19.83;;;8.95;;
20629;SDS011;17386;43.846;25.950;2022-12-31T07:24:17;18.80;;;8.27;;
20629;SDS011;17386;43.846;25.950;2022-12-31T07:26:50;15.98;;;7.38;;
20629;SDS011;17386;43.846;25.950;2022-12-31T07:29:23;20.45;;;9.05;;
20629;SDS011;17386;43.846;25.950;2022-12-31T07:44:23;20.65;;;10.27;;
20629;SDS011;17386;43.846;25.950;2022-12-31T07:49:24;19.58;;;9.30;;
20629;SDS011;17386;43.846;25.950;2022-12-31T07:51:51;29.75;;;10.43;;
20629;SDS011;17386;43.846;25.950;2022-12-31T07:54:17;27.70;;;11.15;;
20629;SDS011;17386;43.846;25.950;2022-12-31T07:56:43;22.52;;;9.57;;
20629;SDS011;17386;43.846;25.950;2022-12-31T08:07:39;17.15;;;8.35;;
20629;SDS011;17386;43.846;25.950;2022-12-31T08:10:52;19.45;;;9.10;;
20629;SDS011;17386;43.846;25.950;2022-12-31T08:13:00;19.88;;;8.73;;
20629;SDS011;17386;43.846;25.950;2022-12-31T08:15:27;18.58;;;8.70;;
20629;SDS011;17386;43.846;25.950;2022-12-31T08:17:53;14.68;;;7.25;;
20629;SDS011;17386;43.846;25.950;2022-12-31T08:20:19;19.23;;;8.10;;
20629;SDS011;17386;43.846;25.950;2022-12-31T08:30:57;16.98;;;7.80;;
20629;SDS011;17386;43.846;25.950;2022-12-31T08:42:02;17.52;;;7.32;;
20629;SDS011;17386;43.846;25.950;2022-12-31T08:44:35;16.23;;;6.68;;
20629;SDS011;17386;43.846;25.950;2022-12-31T08:49:28;15.30;;;7.07;;
20629;SDS011;17386;43.846;25.950;2022-12-31T08:51:55;13.05;;;6.43;;
20629;SDS011;17386;43.846;25.950;2022-12-31T08:54:21;17.70;;;6.90;;
20629;SDS011;17386;43.846;25.950;2022-12-31T09:07:27;13.18;;;6.00;;
20629;SDS011;17386;43.846;25.950;2022-12-31T09:10:16;12.05;;;6.18;;
20629;SDS011;17386;43.846;25.950;2022-12-31T09:15:29;12.57;;;6.25;;
20629;SDS011;17386;43.846;25.950;2022-12-31T09:18:01;11.60;;;5.93;;
20629;SDS011;17386;43.846;25.950;2022-12-31T09:20:31;13.00;;;6.18;;
20629;SDS011;17386;43.846;25.950;2022-12-31T09:22:58;12.88;;;6.20;;
20629;SDS011;17386;43.846;25.950;2022-12-31T09:25:25;11.38;;;5.70;;
20629;SDS011;17386;43.846;25.950;2022-12-31T09:30:47;10.82;;;5.32;;
20629;SDS011;17386;43.846;25.950;2022-12-31T09:33:41;13.43;;;6.07;;
20629;SDS011;17386;43.846;25.950;2022-12-31T09:36:18;11.50;;;5.10;;
20629;SDS011;17386;43.846;25.950;2022-12-31T09:38:51;12.60;;;5.88;;
20629;SDS011;17386;43.846;25.950;2022-12-31T09:47:14;14.90;;;6.28;;
20629;SDS011;17386;43.846;25.950;2022-12-31T09:50:28;12.02;;;5.82;;
20629;SDS011;17386;43.846;25.950;2022-12-31T09:55:52;12.23;;;6.05;;
20629;SDS011;17386;43.846;25.950;2022-12-31T10:01:12;13.00;;;5.63;;
20629;SDS011;17386;43.846;25.950;2022-12-31T10:04:09;11.18;;;5.90;;
20629;SDS011;17386;43.846;25.950;2022-12-31T10:10:08;13.80;;;5.65;;
20629;SDS011;17386;43.846;25.950;2022-12-31T10:18:01;15.23;;;7.07;;
20629;SDS011;17386;43.846;25.950;2022-12-31T10:20:59;13.13;;;6.35;;
20629;SDS011;17386;43.846;25.950;2022-12-31T10:23:39;14.50;;;8.15;;
20629;SDS011;17386;43.846;25.950;2022-12-31T10:29:25;12.18;;;6.95;;
20629;SDS011;17386;43.846;25.950;2022-12-31T10:37:37;13.38;;;7.65;;
20629;SDS011;17386;43.846;25.950;2022-12-31T10:40:18;13.00;;;7.05;;
20629;SDS011;17386;43.846;25.950;2022-12-31T10:45:25;13.85;;;7.40;;
20629;SDS011;17386;43.846;25.950;2022-12-31T10:51:29;11.85;;;6.32;;
20629;SDS011;17386;43.846;25.950;2022-12-31T11:00:16;12.38;;;6.72;;
20629;SDS011;17386;43.846;25.950;2022-12-31T11:03:02;16.33;;;7.65;;
20629;SDS011;17386;43.846;25.950;2022-12-31T11:23:21;22.20;;;9.27;;
20629;SDS011;17386;43.846;25.950;2022-12-31T11:26:11;19.48;;;8.45;;
20629;SDS011;17386;43.846;25.950;2022-12-31T11:28:51;13.30;;;6.93;;
20629;SDS011;17386;43.846;25.950;2022-12-31T11:56:31;15.48;;;7.70;;
20629;SDS011;17386;43.846;25.950;2022-12-31T11:59:05;14.88;;;7.60;;
20629;SDS011;17386;43.846;25.950;2022-12-31T12:01:56;14.75;;;7.15;;
20629;SDS011;17386;43.846;25.950;2022-12-31T12:04:24;16.30;;;7.72;;
20629;SDS011;17386;43.846;25.950;2022-12-31T12:06:49;14.82;;;8.23;;
20629;SDS011;17386;43.846;25.950;2022-12-31T12:09:20;14.93;;;7.75;;
20629;SDS011;17386;43.846;25.950;2022-12-31T12:11:58;15.27;;;8.60;;
20629;SDS011;17386;43.846;25.950;2022-12-31T12:14:35;14.90;;;7.88;;
20629;SDS011;17386;43.846;25.950;2022-12-31T12:17:05;15.55;;;7.63;;
20629;SDS011;17386;43.846;25.950;2022-12-31T12:19:45;14.40;;;7.80;;
20629;SDS011;17386;43.846;25.950;2022-12-31T12:22:21;16.65;;;8.27;;
20629;SDS011;17386;43.846;25.950;2022-12-31T12:24:56;15.40;;;7.72;;
20629;SDS011;17386;43.846;25.950;2022-12-31T12:27:32;16.65;;;8.02;;
20629;SDS011;17386;43.846;25.950;2022-12-31T12:32:55;14.27;;;7.57;;
20629;SDS011;17386;43.846;25.950;2022-12-31T12:35:31;19.77;;;9.68;;
20629;SDS011;17386;43.846;25.950;2022-12-31T12:38:01;17.30;;;8.95;;
20629;SDS011;17386;43.846;25.950;2022-12-31T12:40:32;15.48;;;7.43;;
20629;SDS011;17386;43.846;25.950;2022-12-31T12:42:59;16.35;;;8.18;;
20629;SDS011;17386;43.846;25.950;2022-12-31T12:45:26;15.43;;;6.85;;
20629;SDS011;17386;43.846;25.950;2022-12-31T12:48:01;12.50;;;7.20;;
20629;SDS011;17386;43.846;25.950;2022-12-31T12:50:38;16.45;;;7.38;;
20629;SDS011;17386;43.846;25.950;2022-12-31T12:53:16;15.10;;;8.00;;
20629;SDS011;17386;43.846;25.950;2022-12-31T13:15:33;17.00;;;7.78;;
20629;SDS011;17386;43.846;25.950;2022-12-31T13:23:42;13.60;;;7.35;;
20629;SDS011;17386;43.846;25.950;2022-12-31T13:26:19;16.85;;;8.43;;
20629;SDS011;17386;43.846;25.950;2022-12-31T13:28:46;14.23;;;7.65;;
20629;SDS011;17386;43.846;25.950;2022-12-31T13:31:16;17.35;;;8.23;;
20629;SDS011;17386;43.846;25.950;2022-12-31T13:33:51;15.60;;;8.60;;
20629;SDS011;17386;43.846;25.950;2022-12-31T13:36:22;20.92;;;9.60;;
20629;SDS011;17386;43.846;25.950;2022-12-31T13:38:50;19.38;;;9.40;;
20629;SDS011;17386;43.846;25.950;2022-12-31T13:41:21;17.02;;;8.55;;
20629;SDS011;17386;43.846;25.950;2022-12-31T13:44:08;21.38;;;10.07;;
20629;SDS011;17386;43.846;25.950;2022-12-31T13:46:51;19.33;;;10.00;;
20629;SDS011;17386;43.846;25.950;2022-12-31T13:52:02;17.83;;;8.65;;
20629;SDS011;17386;43.846;25.950;2022-12-31T13:54:35;17.73;;;9.45;;
20629;SDS011;17386;43.846;25.950;2022-12-31T14:00:17;18.63;;;9.43;;
20629;SDS011;17386;43.846;25.950;2022-12-31T14:05:31;20.02;;;9.57;;
20629;SDS011;17386;43.846;25.950;2022-12-31T14:08:02;19.67;;;10.25;;
20629;SDS011;17386;43.846;25.950;2022-12-31T14:16:13;21.42;;;10.55;;
20629;SDS011;17386;43.846;25.950;2022-12-31T14:21:53;21.77;;;11.10;;
20629;SDS011;17386;43.846;25.950;2022-12-31T14:24:47;24.67;;;12.25;;
20629;SDS011;17386;43.846;25.950;2022-12-31T14:27:56;36.30;;;15.88;;
20629;SDS011;17386;43.846;25.950;2022-12-31T14:30:15;24.23;;;11.82;;
20629;SDS011;17386;43.846;25.950;2022-12-31T14:40:48;27.55;;;15.45;;
20629;SDS011;17386;43.846;25.950;2022-12-31T14:46:43;29.52;;;13.38;;
20629;SDS011;17386;43.846;25.950;2022-12-31T14:54:44;29.75;;;14.98;;
20629;SDS011;17386;43.846;25.950;2022-12-31T14:57:10;26.38;;;13.60;;
20629;SDS011;17386;43.846;25.950;2022-12-31T14:59:54;24.70;;;11.40;;
20629;SDS011;17386;43.846;25.950;2022-12-31T15:04:49;19.23;;;9.85;;
20629;SDS011;17386;43.846;25.950;2022-12-31T15:20:59;27.10;;;13.38;;
20629;SDS011;17386;43.846;25.950;2022-12-31T15:23:40;24.23;;;12.55;;
20629;SDS011;17386;43.846;25.950;2022-12-31T15:26:18;28.05;;;14.73;;
20629;SDS011;17386;43.846;25.950;2022-12-31T15:28:53;27.17;;;13.35;;
20629;SDS011;17386;43.846;25.950;2022-12-31T15:31:31;28.05;;;14.52;;
20629;SDS011;17386;43.846;25.950;2022-12-31T15:34:18;28.83;;;13.77;;
20629;SDS011;17386;43.846;25.950;2022-12-31T15:36:53;28.40;;;12.30;;
20629;SDS011;17386;43.846;25.950;2022-12-31T15:41:54;26.23;;;13.77;;
20629;SDS011;17386;43.846;25.950;2022-12-31T15:47:16;29.05;;;13.38;;
20629;SDS011;17386;43.846;25.950;2022-12-31T15:50:00;28.05;;;13.27;;
20629;SDS011;17386;43.846;25.950;2022-12-31T15:52:32;29.90;;;13.25;;
20629;SDS011;17386;43.846;25.950;2022-12-31T15:55:03;33.10;;;13.63;;
20629;SDS011;17386;43.846;25.950;2022-12-31T15:57:38;36.40;;;16.60;;
20629;SDS011;17386;43.846;25.950;2022-12-31T16:00:14;37.55;;;16.42;;
20629;SDS011;17386;43.846;25.950;2022-12-31T16:02:45;38.42;;;17.35;;
20629;SDS011;17386;43.846;25.950;2022-12-31T16:05:23;41.78;;;17.92;;
20629;SDS011;17386;43.846;25.950;2022-12-31T16:07:51;41.95;;;18.40;;
20629;SDS011;17386;43.846;25.950;2022-12-31T16:10:25;41.80;;;20.10;;
20629;SDS011;17386;43.846;25.950;2022-12-31T16:12:53;46.88;;;20.50;;
20629;SDS011;17386;43.846;25.950;2022-12-31T16:15:21;42.33;;;19.52;;
20629;SDS011;17386;43.846;25.950;2022-12-31T16:20:44;42.33;;;19.38;;
20629;SDS011;17386;43.846;25.950;2022-12-31T16:23:25;34.00;;;17.10;;
20629;SDS011;17386;43.846;25.950;2022-12-31T16:25:52;39.35;;;17.73;;
20629;SDS011;17386;43.846;25.950;2022-12-31T16:28:24;40.92;;;18.63;;
20629;SDS011;17386;43.846;25.950;2022-12-31T16:31:03;38.80;;;19.58;;
20629;SDS011;17386;43.846;25.950;2022-12-31T16:33:30;41.38;;;20.08;;
20629;SDS011;17386;43.846;25.950;2022-12-31T16:35:57;89.63;;;36.50;;
20629;SDS011;17386;43.846;25.950;2022-12-31T16:38:34;204.40;;;77.93;;
20629;SDS011;17386;43.846;25.950;2022-12-31T16:43:29;92.70;;;39.75;;
20629;SDS011;17386;43.846;25.950;2022-12-31T16:48:59;60.08;;;27.52;;
20629;SDS011;17386;43.846;25.950;2022-12-31T16:51:32;48.95;;;24.08;;
20629;SDS011;17386;43.846;25.950;2022-12-31T16:54:01;50.17;;;22.50;;
20629;SDS011;17386;43.846;25.950;2022-12-31T16:56:36;44.13;;;20.73;;
20629;SDS011;17386;43.846;25.950;2022-12-31T16:59:03;42.28;;;20.30;;
20629;SDS011;17386;43.846;25.950;2022-12-31T17:01:51;45.22;;;20.88;;
20629;SDS011;17386;43.846;25.950;2022-12-31T17:04:20;46.10;;;20.27;;
20629;SDS011;17386;43.846;25.950;2022-12-31T17:11:54;48.83;;;21.95;;
20629;SDS011;17386;43.846;25.950;2022-12-31T17:14:47;50.42;;;22.60;;
20629;SDS011;17386;43.846;25.950;2022-12-31T17:17:18;51.88;;;23.75;;
20629;SDS011;17386;43.846;25.950;2022-12-31T17:19:54;52.10;;;23.05;;
20629;SDS011;17386;43.846;25.950;2022-12-31T17:22:26;45.88;;;21.75;;
20629;SDS011;17386;43.846;25.950;2022-12-31T17:24:58;43.15;;;20.45;;
20629;SDS011;17386;43.846;25.950;2022-12-31T17:27:31;47.10;;;21.35;;
20629;SDS011;17386;43.846;25.950;2022-12-31T17:30:18;48.85;;;22.83;;
20629;SDS011;17386;43.846;25.950;2022-12-31T17:32:43;48.15;;;24.02;;
20629;SDS011;17386;43.846;25.950;2022-12-31T17:35:26;51.15;;;24.13;;
20629;SDS011;17386;43.846;25.950;2022-12-31T17:37:53;46.60;;;23.50;;
20629;SDS011;17386;43.846;25.950;2022-12-31T17:40:37;46.25;;;22.40;;
20629;SDS011;17386;43.846;25.950;2022-12-31T17:43:04;46.85;;;22.10;;
20629;SDS011;17386;43.846;25.950;2022-12-31T17:45:32;54.72;;;23.85;;
20629;SDS011;17386;43.846;25.950;2022-12-31T17:48:01;54.38;;;24.30;;
20629;SDS011;17386;43.846;25.950;2022-12-31T17:50:27;51.88;;;23.15;;
20629;SDS011;17386;43.846;25.950;2022-12-31T17:53:07;53.95;;;23.73;;
20629;SDS011;17386;43.846;25.950;2022-12-31T17:55:35;51.92;;;24.42;;
20629;SDS011;17386;43.846;25.950;2022-12-31T17:58:01;52.22;;;22.90;;
20629;SDS011;17386;43.846;25.950;2022-12-31T18:00:32;54.72;;;24.50;;
20629;SDS011;17386;43.846;25.950;2022-12-31T18:03:00;61.70;;;26.48;;
20629;SDS011;17386;43.846;25.950;2022-12-31T18:05:26;56.25;;;25.10;;
20629;SDS011;17386;43.846;25.950;2022-12-31T18:07:52;57.83;;;24.15;;
20629;SDS011;17386;43.846;25.950;2022-12-31T18:10:19;49.75;;;22.55;;
20629;SDS011;17386;43.846;25.950;2022-12-31T18:12:48;58.05;;;25.15;;
20629;SDS011;17386;43.846;25.950;2022-12-31T18:15:17;59.70;;;27.83;;
20629;SDS011;17386;43.846;25.950;2022-12-31T18:17:45;60.58;;;28.95;;
20629;SDS011;17386;43.846;25.950;2022-12-31T18:20:11;63.38;;;29.30;;
20629;SDS011;17386;43.846;25.950;2022-12-31T18:22:37;59.88;;;25.92;;
20629;SDS011;17386;43.846;25.950;2022-12-31T18:25:04;58.53;;;27.65;;
20629;SDS011;17386;43.846;25.950;2022-12-31T18:27:31;64.70;;;27.30;;
20629;SDS011;17386;43.846;25.950;2022-12-31T18:29:58;66.55;;;28.55;;
20629;SDS011;17386;43.846;25.950;2022-12-31T18:32:25;66.30;;;30.77;;
20629;SDS011;17386;43.846;25.950;2022-12-31T18:34:53;63.92;;;29.80;;
20629;SDS011;17386;43.846;25.950;2022-12-31T18:37:19;73.97;;;32.83;;
20629;SDS011;17386;43.846;25.950;2022-12-31T18:39:45;69.88;;;32.33;;
20629;SDS011;17386;43.846;25.950;2022-12-31T18:42:11;67.82;;;28.73;;
20629;SDS011;17386;43.846;25.950;2022-12-31T18:44:39;63.58;;;27.73;;
20629;SDS011;17386;43.846;25.950;2022-12-31T18:47:10;52.67;;;24.52;;
20629;SDS011;17386;43.846;25.950;2022-12-31T18:49:36;53.72;;;24.58;;
20629;SDS011;17386;43.846;25.950;2022-12-31T18:52:01;51.03;;;22.52;;
20629;SDS011;17386;43.846;25.950;2022-12-31T18:54:27;47.65;;;21.33;;
20629;SDS011;17386;43.846;25.950;2022-12-31T18:56:52;46.13;;;21.55;;
20629;SDS011;17386;43.846;25.950;2022-12-31T18:59:18;47.38;;;20.52;;
20629;SDS011;17386;43.846;25.950;2022-12-31T19:01:43;45.03;;;19.70;;
20629;SDS011;17386;43.846;25.950;2022-12-31T19:04:12;39.63;;;18.45;;
20629;SDS011;17386;43.846;25.950;2022-12-31T19:06:46;42.35;;;17.45;;
20629;SDS011;17386;43.846;25.950;2022-12-31T19:09:12;41.80;;;17.98;;
20629;SDS011;17386;43.846;25.950;2022-12-31T19:11:38;39.80;;;17.52;;
20629;SDS011;17386;43.846;25.950;2022-12-31T19:14:25;36.88;;;16.60;;
20629;SDS011;17386;43.846;25.950;2022-12-31T19:16:51;34.58;;;16.75;;
20629;SDS011;17386;43.846;25.950;2022-12-31T19:19:18;36.47;;;16.50;;
20629;SDS011;17386;43.846;25.950;2022-12-31T19:21:44;33.88;;;17.27;;
20629;SDS011;17386;43.846;25.950;2022-12-31T19:24:15;35.38;;;16.30;;